createdAt,value
2022-07-28T00:00:16.381Z,153471.94
2022-07-28T00:02:43.831Z,153455.16
2022-07-28T00:05:11.990Z,153450.03
2022-07-28T00:07:39.487Z,153329.97
2022-07-28T00:10:08.101Z,153293.81
2022-07-28T00:12:36.919Z,153362.22
2022-07-28T00:15:04.898Z,153333.81
2022-07-28T00:17:32.318Z,153311.91
2022-07-28T00:19:59.730Z,153322.22
2022-07-28T00:22:27.210Z,153253.81
2022-07-28T00:24:54.634Z,153235.72
2022-07-28T00:27:22.064Z,153233.16
2022-07-28T00:29:51.306Z,153247.34
2022-07-28T00:32:19.216Z,153284.78
2022-07-28T00:34:46.913Z,153239.56
2022-07-28T00:37:15.182Z,153234.44
2022-07-28T00:39:42.747Z,153262.88
2022-07-28T00:42:10.272Z,153253.81
2022-07-28T00:44:39.053Z,153292.53
2022-07-28T00:47:07.993Z,153279.63
2022-07-28T00:49:35.428Z,153261.59
2022-07-28T00:52:03.598Z,153275.78
2022-07-28T00:54:33.492Z,153275.78
2022-07-28T00:57:01.236Z,153249.94
2022-07-28T00:59:28.640Z,153208.63
2022-07-28T01:01:56.925Z,153213.78
2022-07-28T01:04:26.603Z,153209.94
2022-07-28T01:07:05.973Z,153216.34
2022-07-28T01:09:45.147Z,153249.94
2022-07-28T01:12:26.136Z,153213.78
2022-07-28T01:15:02.251Z,153265.41
2022-07-28T01:17:36.853Z,153231.84
2022-07-28T01:20:12.667Z,153207.34
2022-07-28T01:22:46.289Z,153198.28
2022-07-28T01:25:24.781Z,153193.16
2022-07-28T01:28:03.762Z,153198.28
2022-07-28T01:30:37.624Z,153208.63
2022-07-28T01:33:09.317Z,153213.78
2022-07-28T01:35:42.746Z,153208.63
2022-07-28T01:38:12.627Z,153239.56
2022-07-28T01:40:43.666Z,153136.38
2022-07-28T01:43:15.429Z,153115.72
2022-07-28T01:45:46.142Z,153048.66
2022-07-28T01:48:16.015Z,153074.50
2022-07-28T01:50:45.053Z,153104.13
2022-07-28T01:53:14.655Z,153115.72
2022-07-28T01:55:44.898Z,153097.69
2022-07-28T01:58:13.974Z,153088.63
2022-07-28T02:00:42.816Z,153082.22
2022-07-28T02:03:13.341Z,153038.34
2022-07-28T02:05:43.479Z,153047.41
2022-07-28T02:08:13.756Z,153043.53
2022-07-28T02:10:42.930Z,153037.06
2022-07-28T02:13:12.092Z,152998.38
2022-07-28T02:15:41.755Z,152988.06
2022-07-28T02:18:11.972Z,153007.44
2022-07-28T02:20:40.845Z,153012.56
2022-07-28T02:23:09.506Z,153020.34
2022-07-28T02:25:39.396Z,152999.69
2022-07-28T02:28:09.068Z,152981.63
2022-07-28T02:30:41.974Z,153002.25
2022-07-28T02:33:15.985Z,152995.78
2022-07-28T02:35:56.700Z,153002.25
2022-07-28T02:38:30.522Z,153009.97
2022-07-28T02:41:02.045Z,153012.56
2022-07-28T02:43:45.846Z,153012.56
2022-07-28T02:46:22.922Z,153007.44
2022-07-28T02:48:55.868Z,152981.63
2022-07-28T02:51:25.864Z,152953.28
2022-07-28T02:53:54.543Z,152976.50
2022-07-28T02:56:23.629Z,152953.28
2022-07-28T02:58:52.673Z,153003.56
2022-07-28T03:01:21.343Z,152967.44
2022-07-28T03:03:49.383Z,152957.13
2022-07-28T03:06:28.502Z,152946.81
2022-07-28T03:08:56.718Z,152886.22
2022-07-28T03:11:24.204Z,152842.38
2022-07-28T03:13:51.650Z,152757.31
2022-07-28T03:16:19.172Z,152772.78
2022-07-28T03:18:46.643Z,152788.25
2022-07-28T03:21:14.057Z,152838.50
2022-07-28T03:23:44.591Z,152847.50
2022-07-28T03:26:18.171Z,152930.06
2022-07-28T03:28:46.966Z,152897.84
2022-07-28T03:31:16.032Z,152821.75
2022-07-28T03:33:43.598Z,152890.06
2022-07-28T03:36:16.021Z,152941.66
2022-07-28T03:38:49.490Z,152844.97
2022-07-28T03:41:18.652Z,152801.16
2022-07-28T03:43:47.171Z,152855.28
2022-07-28T03:46:14.815Z,152875.88
2022-07-28T03:48:42.300Z,152819.16
2022-07-28T03:51:09.752Z,152855.28
2022-07-28T03:53:37.407Z,152881.03
2022-07-28T03:56:06.354Z,152888.75
2022-07-28T03:58:33.818Z,152913.34
2022-07-28T04:01:01.346Z,152924.94
2022-07-28T04:03:41.225Z,152896.50
2022-07-28T04:06:11.165Z,152932.63
2022-07-28T04:08:38.615Z,152931.34
2022-07-28T04:11:07.509Z,152950.72
2022-07-28T04:13:36.639Z,152964.88
2022-07-28T04:16:04.621Z,152986.78
2022-07-28T04:18:32.200Z,153000.97
2022-07-28T04:21:00.115Z,153030.63
2022-07-28T04:23:27.580Z,153013.88
2022-07-28T04:25:55.360Z,153008.69
2022-07-28T04:28:24.167Z,153004.84
2022-07-28T04:30:51.721Z,152995.78
2022-07-28T04:33:19.630Z,153110.59
2022-07-28T04:35:47.803Z,153286.09
2022-07-28T04:38:17.768Z,153546.88
2022-07-28T04:40:45.226Z,153893.22
2022-07-28T04:43:12.626Z,154013.47
2022-07-28T04:45:46.038Z,153875.13
2022-07-28T04:48:21.864Z,153770.41
2022-07-28T04:50:51.112Z,153695.47
2022-07-28T04:53:19.199Z,153614.09
2022-07-28T04:55:46.737Z,153533.91
2022-07-28T04:58:14.176Z,153528.78
2022-07-28T05:00:45.649Z,153544.28
2022-07-28T05:03:13.275Z,153564.91
2022-07-28T05:05:40.760Z,153502.97
2022-07-28T05:08:08.336Z,153559.78
2022-07-28T05:10:35.786Z,153539.09
2022-07-28T05:13:06.949Z,153536.50
2022-07-28T05:15:34.697Z,153502.97
2022-07-28T05:18:03.419Z,153533.91
2022-07-28T05:20:30.864Z,153588.19
2022-07-28T05:22:58.306Z,153606.31
2022-07-28T05:25:26.603Z,153595.97
2022-07-28T05:27:54.549Z,153654.13
2022-07-28T05:30:22.571Z,153720.00
2022-07-28T05:32:50.940Z,153816.94
2022-07-28T05:35:19.709Z,153841.47
2022-07-28T05:37:47.125Z,153787.19
2022-07-28T05:40:16.314Z,153916.50
2022-07-28T05:42:44.743Z,153995.34
2022-07-28T05:45:16.639Z,154012.19
2022-07-28T05:47:46.385Z,154093.66
2022-07-28T05:50:15.228Z,153966.91
2022-07-28T05:52:44.285Z,154025.09
2022-07-28T05:55:12.148Z,154041.94
2022-07-28T05:57:40.792Z,154045.81
2022-07-28T06:00:10.690Z,154088.47
2022-07-28T06:02:38.357Z,154106.59
2022-07-28T06:05:07.026Z,154182.94
2022-07-28T06:07:43.597Z,154085.91
2022-07-28T06:10:15.694Z,154228.25
2022-07-28T06:12:44.199Z,154195.88
2022-07-28T06:15:18.055Z,154232.16
2022-07-28T06:17:45.860Z,154322.72
2022-07-28T06:20:14.314Z,154277.41
2022-07-28T06:22:43.176Z,154335.66
2022-07-28T06:25:15.348Z,154338.25
2022-07-28T06:27:43.416Z,154373.19
2022-07-28T06:30:11.553Z,154426.31
2022-07-28T06:32:40.017Z,154426.31
2022-07-28T06:35:09.021Z,154436.72
2022-07-28T06:37:36.575Z,154441.84
2022-07-28T06:40:04.573Z,154558.44
2022-07-28T06:42:33.324Z,154606.34
2022-07-28T06:45:00.825Z,154629.63
2022-07-28T06:47:28.554Z,154522.13
2022-07-28T06:49:56.064Z,154554.53
2022-07-28T06:52:23.691Z,154513.09
2022-07-28T06:54:52.918Z,154614.13
2022-07-28T06:57:22.046Z,154586.94
2022-07-28T06:59:50.910Z,154675.03
2022-07-28T07:02:18.486Z,154783.91
2022-07-28T07:04:46.397Z,154732.06
2022-07-28T07:07:14.853Z,154829.28
2022-07-28T07:09:44.840Z,155003.03
2022-07-28T07:12:12.312Z,155131.47
2022-07-28T07:14:39.728Z,155112.03
2022-07-28T07:17:08.477Z,155132.75
2022-07-28T07:19:35.899Z,155256.00
2022-07-28T07:22:03.332Z,155501.41
2022-07-28T07:24:30.780Z,155419.59
2022-07-28T07:26:58.219Z,155100.38
2022-07-28T07:29:30.396Z,155183.38
2022-07-28T07:31:58.848Z,155406.63
2022-07-28T07:34:27.666Z,155206.72
2022-07-28T07:36:55.058Z,155288.47
2022-07-28T07:39:23.526Z,155315.78
2022-07-28T07:41:50.939Z,155269.00
2022-07-28T07:44:18.464Z,155505.31
2022-07-28T07:46:45.968Z,155578.06
2022-07-28T07:49:13.684Z,155606.63
2022-07-28T07:51:42.433Z,155692.38
2022-07-28T07:54:09.993Z,155775.59
2022-07-28T07:56:37.413Z,155663.78
2022-07-28T07:59:04.831Z,155458.53
2022-07-28T08:01:32.510Z,155455.94
2022-07-28T08:04:00.901Z,155519.66
2022-07-28T08:06:28.686Z,155580.66
2022-07-28T08:08:58.014Z,155557.28
2022-07-28T08:11:25.457Z,155461.16
2022-07-28T08:13:52.907Z,155393.66
2022-07-28T08:16:20.402Z,155488.41
2022-07-28T08:18:47.895Z,155528.72
2022-07-28T08:21:16.195Z,155581.97
2022-07-28T08:23:43.597Z,155622.22
2022-07-28T08:26:12.352Z,155694.97
2022-07-28T08:28:39.759Z,155783.34
2022-07-28T08:31:11.052Z,155887.34
2022-07-28T08:33:54.092Z,155767.75
2022-07-28T08:36:22.571Z,155835.38
2022-07-28T08:38:50.025Z,155847.06
2022-07-28T08:41:23.205Z,155871.75
2022-07-28T08:43:53.690Z,155845.75
2022-07-28T08:46:22.389Z,155840.53
2022-07-28T08:48:51.801Z,155848.38
2022-07-28T08:51:20.922Z,155850.94
2022-07-28T08:53:50.042Z,155958.88
2022-07-28T08:56:20.025Z,155965.38
2022-07-28T08:58:47.600Z,155871.75
2022-07-28T09:01:15.079Z,155827.56
2022-07-28T09:03:43.637Z,155853.53
2022-07-28T09:06:11.446Z,155990.06
2022-07-28T09:08:38.911Z,156096.75
2022-07-28T09:11:08.162Z,155991.38
2022-07-28T09:13:38.346Z,156086.34
2022-07-28T09:16:06.851Z,156040.78
2022-07-28T09:18:34.726Z,156241.16
2022-07-28T09:21:02.165Z,156061.59
2022-07-28T09:23:44.548Z,155995.28
2022-07-28T09:26:13.179Z,155955.00
2022-07-28T09:28:53.449Z,156007.00
2022-07-28T09:31:23.297Z,156108.44
2022-07-28T09:33:55.624Z,156194.28
2022-07-28T09:36:23.463Z,156157.88
2022-07-28T09:38:51.579Z,156181.28
2022-07-28T09:41:21.856Z,156345.28
2022-07-28T09:43:55.212Z,156420.72
2022-07-28T09:46:25.438Z,156316.63
2022-07-28T09:48:56.496Z,156360.88
2022-07-28T09:51:26.810Z,156433.75
2022-07-28T09:54:06.445Z,156293.22
2022-07-28T09:56:34.136Z,156314.03
2022-07-28T09:59:03.834Z,156376.50
2022-07-28T10:01:36.754Z,156347.88
2022-07-28T10:04:05.001Z,156298.41
2022-07-28T10:06:34.502Z,156275.00
2022-07-28T10:09:03.497Z,156428.56
2022-07-28T10:11:31.485Z,156282.84
2022-07-28T10:14:02.848Z,156412.94
2022-07-28T10:16:33.532Z,156329.66
2022-07-28T10:19:02.153Z,156440.31
2022-07-28T10:21:32.867Z,156450.72
2022-07-28T10:24:05.482Z,156521.03
2022-07-28T10:26:34.547Z,156620.03
2022-07-28T10:29:07.052Z,156677.34
2022-07-28T10:31:42.134Z,156574.38
2022-07-28T10:34:16.486Z,156362.19
2022-07-28T10:36:45.286Z,156351.81
2022-07-28T10:39:15.116Z,156349.19
2022-07-28T10:41:43.838Z,156332.25
2022-07-28T10:44:15.117Z,156398.63
2022-07-28T10:46:45.028Z,156414.25
2022-07-28T10:49:14.684Z,156405.16
2022-07-28T10:52:08.694Z,156452.03
2022-07-28T10:54:37.439Z,156523.63
2022-07-28T10:57:08.567Z,156613.50
2022-07-28T10:59:58.582Z,156689.06
2022-07-28T11:03:02.065Z,156472.88
2022-07-28T11:05:42.544Z,156420.72
2022-07-28T11:08:27.731Z,156457.25
2022-07-28T11:11:08.756Z,156532.72
2022-07-28T11:13:41.166Z,156586.09
2022-07-28T11:16:22.054Z,156767.19
2022-07-28T11:19:40.301Z,156691.66
2022-07-28T11:22:32.680Z,156553.59
2022-07-28T11:25:19.185Z,156509.31
2022-07-28T11:28:06.225Z,156620.03
2022-07-28T11:30:53.123Z,156474.19
2022-07-28T11:33:21.786Z,156459.88
2022-07-28T11:36:00.454Z,156459.88
2022-07-28T11:38:29.975Z,156386.91
2022-07-28T11:40:57.885Z,156437.72
2022-07-28T11:43:43.311Z,156433.75
2022-07-28T11:46:34.433Z,156655.16
2022-07-28T11:49:24.898Z,156681.22
2022-07-28T11:52:11.125Z,156566.59
2022-07-28T11:54:39.895Z,156676.03
2022-07-28T11:57:09.782Z,156691.66
2022-07-28T11:59:49.725Z,156485.91
2022-07-28T12:02:19.334Z,156640.84
2022-07-28T12:04:54.846Z,156733.31
2022-07-28T12:07:29.012Z,156742.44
2022-07-28T12:09:58.263Z,156686.44
2022-07-28T12:12:27.938Z,156676.03
2022-07-28T12:14:56.692Z,156597.81
2022-07-28T12:17:32.769Z,156702.06
2022-07-28T12:20:03.927Z,156650.00
2022-07-28T12:22:33.748Z,156751.56
2022-07-28T12:25:02.655Z,156756.78
2022-07-28T12:27:32.004Z,156785.50
2022-07-28T12:30:00.262Z,156861.03
2022-07-28T12:32:32.826Z,156928.78
2022-07-28T12:35:00.289Z,156931.41
2022-07-28T12:37:28.481Z,156756.78
2022-07-28T12:39:57.719Z,156561.38
2022-07-28T12:42:32.094Z,156590.03
2022-07-28T12:45:02.969Z,156532.72
2022-07-28T12:47:31.503Z,156547.06
2022-07-28T12:50:14.051Z,156537.94
2022-07-28T12:52:42.864Z,156582.22
2022-07-28T12:55:26.904Z,156552.28
2022-07-28T12:57:54.632Z,156606.97
2022-07-28T13:00:24.698Z,156592.63
2022-07-28T13:02:55.378Z,156574.38
2022-07-28T13:05:31.880Z,156501.53
2022-07-28T13:08:02.272Z,156595.25
2022-07-28T13:10:31.398Z,156553.59
2022-07-28T13:19:09.970Z,156752.84
2022-07-28T13:21:38.669Z,156742.44
2022-07-28T13:24:06.531Z,156609.63
2022-07-28T13:26:35.264Z,156613.50
2022-07-28T13:29:03.122Z,156623.94
2022-07-28T13:31:40.631Z,156705.94
2022-07-28T13:34:10.125Z,156795.91
2022-07-28T13:36:38.634Z,156838.91
2022-07-28T13:39:07.085Z,156729.44
2022-07-28T13:41:56.428Z,156725.50
2022-07-28T13:44:23.201Z,156751.56
2022-07-28T13:46:50.631Z,156734.59
2022-07-28T13:49:18.437Z,156738.53
2022-07-28T13:51:49.091Z,156791.97
2022-07-28T13:54:19.732Z,156756.78
2022-07-28T13:56:49.468Z,156782.88
2022-07-28T13:59:17.471Z,156816.72
2022-07-28T14:01:49.498Z,156715.09
2022-07-28T14:04:17.980Z,156774.97
2022-07-28T14:06:45.788Z,156716.41
2022-07-28T14:09:18.818Z,156676.03
2022-07-28T14:11:53.297Z,156610.88
2022-07-28T14:14:24.112Z,156715.09
2022-07-28T14:16:54.252Z,156681.22
2022-07-28T14:19:23.530Z,156704.69
2022-07-28T14:22:12.899Z,156702.06
2022-07-28T14:24:41.485Z,156720.28
2022-07-28T14:27:10.911Z,156732.03
2022-07-28T14:29:38.505Z,156674.72
2022-07-28T14:32:06.514Z,156694.22
2022-07-28T14:34:34.384Z,156700.78
2022-07-28T14:37:03.484Z,156715.09
2022-07-28T14:39:35.918Z,156722.88
2022-07-28T14:42:04.144Z,156776.34
2022-07-28T14:44:33.140Z,156676.03
2022-07-28T14:47:00.597Z,156712.47
2022-07-28T14:49:28.398Z,156694.22
2022-07-28T14:51:57.416Z,156724.19
2022-07-28T14:54:24.871Z,156788.06
2022-07-28T14:56:52.894Z,156806.31
2022-07-28T14:59:20.384Z,156834.97
2022-07-28T15:01:50.091Z,156765.88
2022-07-28T15:04:18.277Z,156780.25
2022-07-28T15:06:47.182Z,156840.22
2022-07-28T15:09:14.718Z,156861.03
2022-07-28T15:11:42.160Z,156889.69
2022-07-28T15:14:09.686Z,156848.00
2022-07-28T15:16:38.406Z,156833.66
2022-07-28T15:19:08.907Z,156836.28
2022-07-28T15:21:38.253Z,156820.66
2022-07-28T15:24:06.922Z,156810.25
2022-07-28T15:26:34.605Z,156842.78
2022-07-28T15:29:02.115Z,156814.16
2022-07-28T15:31:30.308Z,156795.91
2022-07-28T15:33:58.351Z,156720.28
2022-07-28T15:36:27.249Z,156694.22
2022-07-28T15:38:55.260Z,156664.31
2022-07-28T15:41:22.772Z,156652.56
2022-07-28T15:43:50.192Z,156661.72
2022-07-28T15:46:17.660Z,156605.66
2022-07-28T15:48:45.750Z,156608.28
2022-07-28T15:51:13.228Z,156650.00
2022-07-28T15:53:42.082Z,156691.66
2022-07-28T15:56:09.539Z,156685.13
2022-07-28T15:58:36.945Z,156694.22
2022-07-28T16:01:04.811Z,156673.41
2022-07-28T16:03:32.279Z,156696.84
2022-07-28T16:05:59.724Z,156696.84
2022-07-28T16:08:27.660Z,156674.72
2022-07-28T16:10:56.416Z,156670.81
2022-07-28T16:13:36.424Z,156679.91
2022-07-28T16:16:06.537Z,156682.50
2022-07-28T16:18:34.434Z,156681.22
2022-07-28T16:21:01.833Z,156713.78
2022-07-28T16:23:29.658Z,156703.38
2022-07-28T16:25:58.621Z,156663.00
2022-07-28T16:28:26.458Z,156631.75
2022-07-28T16:30:53.992Z,156634.38
2022-07-28T16:33:21.599Z,156608.28
2022-07-28T16:35:49.028Z,156623.94
2022-07-28T16:38:16.468Z,156605.66
2022-07-28T16:40:43.913Z,156614.81
2022-07-28T16:43:12.702Z,156580.94
2022-07-28T16:45:40.887Z,156543.13
2022-07-28T16:48:08.408Z,156545.75
2022-07-28T16:50:36.024Z,156552.28
2022-07-28T16:53:04.890Z,156556.16
2022-07-28T16:55:32.389Z,156526.25
2022-07-28T16:57:59.778Z,156564.00
2022-07-28T17:00:29.500Z,156544.44
2022-07-28T17:02:56.965Z,156511.94
2022-07-28T17:05:24.823Z,156513.22
2022-07-28T17:07:52.786Z,156519.72
2022-07-28T17:10:21.197Z,156548.34
2022-07-28T17:12:55.225Z,156504.09
2022-07-28T17:15:23.551Z,156537.94
2022-07-28T17:17:52.964Z,156556.16
2022-07-28T17:20:21.216Z,156530.13
2022-07-28T17:22:49.060Z,156509.31
2022-07-28T17:28:05.599Z,156493.69
2022-07-28T17:30:33.809Z,156497.59
2022-07-28T17:33:08.771Z,156467.66
2022-07-28T17:35:37.290Z,156433.75
2022-07-28T17:38:06.801Z,156425.94
2022-07-28T17:40:34.414Z,156394.69
2022-07-28T17:43:01.996Z,156420.72
2022-07-28T17:45:29.413Z,156409.00
2022-07-28T17:47:56.829Z,156403.84
2022-07-28T17:50:25.549Z,156390.84
2022-07-28T17:52:52.958Z,156377.81
2022-07-28T17:55:55.863Z,156376.50
2022-07-28T17:58:27.949Z,156358.28
2022-07-28T18:00:58.648Z,156321.88
2022-07-28T18:03:59.190Z,156324.47
2022-07-28T18:06:26.721Z,156308.84
2022-07-28T18:08:54.137Z,156328.34
2022-07-28T18:11:21.554Z,156329.66
2022-07-28T18:14:04.077Z,156337.47
2022-07-28T18:16:33.040Z,156319.25
2022-07-28T18:19:00.466Z,156316.63
2022-07-28T18:21:29.244Z,156280.22
2022-07-28T18:23:56.727Z,156306.25
2022-07-28T18:26:24.172Z,156293.22
2022-07-28T18:28:52.087Z,156248.94
2022-07-28T18:31:19.542Z,156235.94
2022-07-28T18:33:47.022Z,156222.91
2022-07-28T18:36:14.441Z,156165.66
2022-07-28T18:38:43.174Z,156152.66
2022-07-28T18:41:10.584Z,156120.19
2022-07-28T18:43:37.987Z,156104.56
2022-07-28T18:46:05.474Z,156101.97
2022-07-28T18:48:32.950Z,156129.28
2022-07-28T18:51:00.899Z,156087.66
2022-07-28T18:53:28.777Z,156051.22
2022-07-28T18:55:57.545Z,156031.69
2022-07-28T18:58:25.084Z,155957.59
2022-07-28T19:00:52.531Z,155960.16
2022-07-28T19:03:20.021Z,155913.41
2022-07-28T19:05:47.588Z,155865.22
2022-07-28T19:08:14.993Z,155952.38
2022-07-28T19:10:44.609Z,155955.00
2022-07-28T19:13:13.486Z,155936.78
2022-07-28T19:15:41.284Z,155867.84
2022-07-28T19:18:11.654Z,155827.56
2022-07-28T19:20:39.633Z,155861.38
2022-07-28T19:23:07.051Z,155766.50
2022-07-28T19:25:35.966Z,155741.78
2022-07-28T19:28:03.869Z,155734.00
2022-07-28T19:30:32.757Z,155679.38
2022-07-28T19:33:00.796Z,155692.38
2022-07-28T19:35:28.226Z,155694.97
2022-07-28T19:37:56.618Z,155661.19
2022-07-28T19:40:25.516Z,155739.22
2022-07-28T19:42:53.403Z,155767.75
2022-07-28T19:45:20.924Z,155684.59
2022-07-28T19:47:50.000Z,155683.28
2022-07-28T19:50:18.285Z,155562.50
2022-07-28T19:52:45.733Z,155506.63
2022-07-28T19:55:17.730Z,155458.53
2022-07-28T19:57:46.125Z,155401.41
2022-07-28T20:00:17.236Z,155398.84
2022-07-28T20:02:45.709Z,155250.84
2022-07-28T20:05:15.352Z,155263.81
2022-07-28T20:07:43.214Z,155276.81
2022-07-28T20:10:10.954Z,155235.28
2022-07-28T20:12:38.421Z,155149.63
2022-07-28T20:15:06.438Z,155086.03
2022-07-28T20:17:41.160Z,155154.84
2022-07-28T20:20:11.535Z,155063.97
2022-07-28T20:22:41.614Z,155118.50
2022-07-28T20:25:11.049Z,155100.38
2022-07-28T20:27:39.919Z,155095.16
2022-07-28T20:30:09.612Z,155118.50
2022-07-28T20:32:37.756Z,155061.41
2022-07-28T20:35:06.556Z,155044.53
2022-07-28T20:37:36.620Z,155010.78
2022-07-28T20:40:07.914Z,154942.06
2022-07-28T20:42:35.693Z,154988.75
2022-07-28T20:45:03.979Z,154957.63
2022-07-28T20:47:32.857Z,154970.59
2022-07-28T20:50:00.778Z,154840.94
2022-07-28T20:52:28.190Z,154891.53
2022-07-28T20:54:56.086Z,154796.84
2022-07-28T20:57:24.892Z,154887.63
2022-07-28T20:59:52.458Z,154921.34
2022-07-28T21:02:20.181Z,154962.84
2022-07-28T21:04:50.300Z,154934.31
2022-07-28T21:08:00.274Z,155016.00
2022-07-28T21:10:07.039Z,155131.47
2022-07-28T21:12:37.000Z,155261.22
2022-07-28T21:15:04.921Z,155183.38
2022-07-28T21:17:32.372Z,155266.38
2022-07-28T21:19:59.808Z,155227.47
2022-07-28T21:22:27.274Z,155219.69
2022-07-28T21:24:55.617Z,155149.63
2022-07-28T21:27:23.661Z,155096.44
2022-07-28T21:32:17.995Z,155038.03
2022-07-28T21:34:45.441Z,154970.59
2022-07-28T21:37:14.036Z,154936.91
2022-07-28T21:39:41.564Z,154882.47
2022-07-28T21:42:09.541Z,154875.97
2022-07-28T21:44:37.600Z,154827.97
2022-07-28T21:47:06.979Z,154851.28
2022-07-28T21:49:34.532Z,154859.03
2022-07-28T21:52:01.981Z,154840.94
2022-07-28T21:54:29.411Z,154835.72
2022-07-28T21:56:57.022Z,154825.38
2022-07-28T21:59:24.507Z,154795.56
2022-07-28T22:01:52.017Z,154741.13
2022-07-28T22:04:21.231Z,154754.06
2022-07-28T22:06:48.993Z,154632.22
2022-07-28T22:09:16.413Z,154725.56
2022-07-28T22:11:43.956Z,154757.97
2022-07-28T22:14:11.586Z,154713.91
2022-07-28T22:16:39.108Z,154717.81
2022-07-28T22:19:06.619Z,154651.75
2022-07-28T22:21:35.360Z,154818.88
2022-07-28T22:24:02.777Z,154765.72
2022-07-28T22:26:30.200Z,154765.72
2022-07-28T22:28:57.610Z,154721.72
2022-07-28T22:31:25.096Z,154729.47
2022-07-28T22:33:52.598Z,154573.97
2022-07-28T22:36:20.038Z,154617.97
2022-07-28T22:38:48.752Z,154621.88
2022-07-28T22:41:16.159Z,154553.22
2022-07-28T22:43:43.551Z,154498.84
2022-07-28T22:46:11.054Z,154368.03
2022-07-28T22:48:38.549Z,154390.03
2022-07-28T22:51:10.752Z,154460.00
2022-07-28T22:53:38.321Z,154443.16
2022-07-28T22:56:07.797Z,154383.59
2022-07-28T22:58:35.263Z,154454.81
2022-07-28T23:01:03.941Z,154505.34
2022-07-28T23:03:34.017Z,154452.25
2022-07-28T23:06:02.425Z,154431.50
2022-07-28T23:08:29.857Z,154397.88
2022-07-28T23:10:57.325Z,154405.63
2022-07-28T23:13:26.067Z,154378.38
2022-07-28T23:15:53.531Z,154418.56
2022-07-28T23:18:20.921Z,154370.63
2022-07-28T23:20:48.837Z,154387.44
2022-07-28T23:23:18.387Z,154383.59
2022-07-28T23:25:46.720Z,154382.28
2022-07-28T23:28:14.182Z,154314.97
2022-07-28T23:30:42.977Z,154278.69
2022-07-28T23:33:15.688Z,154263.22
2022-07-28T23:35:57.953Z,154255.41
2022-07-28T23:38:25.392Z,154211.41
2022-07-28T23:40:53.003Z,154245.09
2022-07-28T23:43:20.428Z,154238.59
2022-07-28T23:45:49.431Z,154226.94
2022-07-28T23:48:16.853Z,154185.53
2022-07-28T23:50:44.253Z,154230.84
2022-07-28T23:53:11.663Z,154216.63
2022-07-28T23:55:39.071Z,154211.41
2022-07-28T23:58:06.479Z,154250.22
